sensor_id;sensor_type;location;lat;lon;timestamp;P1;durP1;ratioP1;P2;durP2;ratioP2
76725;SDS011;65651;53.154;17.916;2023-07-24T00:00:14;16.70;;;9.80;;
76725;SDS011;65651;53.154;17.916;2023-07-24T00:03:02;9.60;;;6.80;;
76725;SDS011;65651;53.154;17.916;2023-07-24T00:05:30;9.80;;;6.90;;
76725;SDS011;65651;53.154;17.916;2023-07-24T00:07:57;18.90;;;10.30;;
76725;SDS011;65651;53.154;17.916;2023-07-24T00:10:25;25.10;;;14.50;;
76725;SDS011;65651;53.154;17.916;2023-07-24T00:12:54;24.10;;;14.40;;
76725;SDS011;65651;53.154;17.916;2023-07-24T00:15:21;17.40;;;10.70;;
76725;SDS011;65651;53.154;17.916;2023-07-24T00:17:49;13.20;;;8.10;;
76725;SDS011;65651;53.154;17.916;2023-07-24T00:20:19;9.60;;;6.50;;
76725;SDS011;65651;53.154;17.916;2023-07-24T00:22:47;9.40;;;6.80;;
76725;SDS011;65651;53.154;17.916;2023-07-24T00:25:15;10.40;;;4.80;;
76725;SDS011;65651;53.154;17.916;2023-07-24T00:27:43;6.80;;;5.00;;
76725;SDS011;65651;53.154;17.916;2023-07-24T00:30:15;8.60;;;5.90;;
76725;SDS011;65651;53.154;17.916;2023-07-24T00:32:47;8.40;;;6.00;;
76725;SDS011;65651;53.154;17.916;2023-07-24T00:35:14;8.10;;;5.20;;
76725;SDS011;65651;53.154;17.916;2023-07-24T00:37:44;7.20;;;5.20;;
76725;SDS011;65651;53.154;17.916;2023-07-24T00:40:12;9.10;;;4.90;;
76725;SDS011;65651;53.154;17.916;2023-07-24T00:42:49;7.20;;;4.40;;
76725;SDS011;65651;53.154;17.916;2023-07-24T00:45:19;8.00;;;4.70;;
76725;SDS011;65651;53.154;17.916;2023-07-24T00:47:48;6.30;;;4.90;;
76725;SDS011;65651;53.154;17.916;2023-07-24T00:50:16;8.30;;;4.60;;
76725;SDS011;65651;53.154;17.916;2023-07-24T00:52:44;8.80;;;4.80;;
76725;SDS011;65651;53.154;17.916;2023-07-24T00:55:13;6.40;;;5.00;;
76725;SDS011;65651;53.154;17.916;2023-07-24T00:57:43;7.30;;;5.10;;
76725;SDS011;65651;53.154;17.916;2023-07-24T01:00:14;9.60;;;5.30;;
76725;SDS011;65651;53.154;17.916;2023-07-24T01:02:42;7.90;;;5.70;;
76725;SDS011;65651;53.154;17.916;2023-07-24T01:05:14;8.50;;;5.40;;
76725;SDS011;65651;53.154;17.916;2023-07-24T01:07:42;10.00;;;6.40;;
76725;SDS011;65651;53.154;17.916;2023-07-24T01:10:13;7.40;;;5.70;;
76725;SDS011;65651;53.154;17.916;2023-07-24T01:12:51;7.20;;;5.00;;
76725;SDS011;65651;53.154;17.916;2023-07-24T01:15:34;8.40;;;5.30;;
76725;SDS011;65651;53.154;17.916;2023-07-24T01:18:24;7.70;;;5.30;;
76725;SDS011;65651;53.154;17.916;2023-07-24T01:20:54;7.80;;;4.90;;
76725;SDS011;65651;53.154;17.916;2023-07-24T01:26:20;6.90;;;5.00;;
76725;SDS011;65651;53.154;17.916;2023-07-24T01:28:51;7.20;;;5.50;;
76725;SDS011;65651;53.154;17.916;2023-07-24T01:31:21;8.40;;;5.70;;
76725;SDS011;65651;53.154;17.916;2023-07-24T01:33:50;10.00;;;6.60;;
76725;SDS011;65651;53.154;17.916;2023-07-24T01:36:18;9.60;;;6.50;;
76725;SDS011;65651;53.154;17.916;2023-07-24T01:38:48;9.90;;;6.60;;
76725;SDS011;65651;53.154;17.916;2023-07-24T01:41:19;8.80;;;6.40;;
76725;SDS011;65651;53.154;17.916;2023-07-24T01:43:47;9.50;;;6.10;;
76725;SDS011;65651;53.154;17.916;2023-07-24T01:46:15;9.70;;;6.10;;
76725;SDS011;65651;53.154;17.916;2023-07-24T01:48:43;7.90;;;6.10;;
76725;SDS011;65651;53.154;17.916;2023-07-24T01:51:12;8.70;;;6.40;;
76725;SDS011;65651;53.154;17.916;2023-07-24T01:53:40;11.20;;;6.60;;
76725;SDS011;65651;53.154;17.916;2023-07-24T01:56:07;8.40;;;6.10;;
76725;SDS011;65651;53.154;17.916;2023-07-24T01:58:34;9.90;;;6.00;;
76725;SDS011;65651;53.154;17.916;2023-07-24T02:01:05;7.80;;;5.80;;
76725;SDS011;65651;53.154;17.916;2023-07-24T02:03:33;8.00;;;5.50;;
76725;SDS011;65651;53.154;17.916;2023-07-24T02:06:05;8.60;;;5.80;;
76725;SDS011;65651;53.154;17.916;2023-07-24T02:08:32;7.70;;;5.50;;
76725;SDS011;65651;53.154;17.916;2023-07-24T02:11:00;9.50;;;6.20;;
76725;SDS011;65651;53.154;17.916;2023-07-24T02:13:30;7.20;;;5.90;;
76725;SDS011;65651;53.154;17.916;2023-07-24T02:15:58;13.20;;;5.90;;
76725;SDS011;65651;53.154;17.916;2023-07-24T02:18:30;8.30;;;5.90;;
76725;SDS011;65651;53.154;17.916;2023-07-24T02:20:58;8.00;;;5.70;;
76725;SDS011;65651;53.154;17.916;2023-07-24T02:23:29;8.20;;;5.70;;
76725;SDS011;65651;53.154;17.916;2023-07-24T02:25:56;9.30;;;6.00;;
76725;SDS011;65651;53.154;17.916;2023-07-24T02:28:24;9.10;;;5.90;;
76725;SDS011;65651;53.154;17.916;2023-07-24T02:30:53;8.70;;;5.90;;
76725;SDS011;65651;53.154;17.916;2023-07-24T02:33:26;7.90;;;6.20;;
76725;SDS011;65651;53.154;17.916;2023-07-24T02:35:55;10.50;;;6.50;;
76725;SDS011;65651;53.154;17.916;2023-07-24T02:38:22;8.90;;;6.10;;
76725;SDS011;65651;53.154;17.916;2023-07-24T02:40:50;10.30;;;6.20;;
76725;SDS011;65651;53.154;17.916;2023-07-24T02:43:18;9.20;;;6.10;;
76725;SDS011;65651;53.154;17.916;2023-07-24T02:45:45;7.60;;;5.80;;
76725;SDS011;65651;53.154;17.916;2023-07-24T02:48:13;10.20;;;6.40;;
76725;SDS011;65651;53.154;17.916;2023-07-24T02:50:40;8.40;;;6.20;;
76725;SDS011;65651;53.154;17.916;2023-07-24T02:53:10;7.80;;;6.20;;
76725;SDS011;65651;53.154;17.916;2023-07-24T02:55:41;11.40;;;6.50;;
76725;SDS011;65651;53.154;17.916;2023-07-24T02:58:12;8.70;;;6.30;;
76725;SDS011;65651;53.154;17.916;2023-07-24T03:00:41;10.70;;;6.20;;
76725;SDS011;65651;53.154;17.916;2023-07-24T03:03:08;7.80;;;5.00;;
76725;SDS011;65651;53.154;17.916;2023-07-24T03:05:36;11.00;;;6.40;;
76725;SDS011;65651;53.154;17.916;2023-07-24T03:08:05;9.80;;;6.40;;
76725;SDS011;65651;53.154;17.916;2023-07-24T03:10:32;9.80;;;6.00;;
76725;SDS011;65651;53.154;17.916;2023-07-24T03:12:59;8.10;;;5.60;;
76725;SDS011;65651;53.154;17.916;2023-07-24T03:15:28;10.20;;;6.60;;
76725;SDS011;65651;53.154;17.916;2023-07-24T03:17:55;9.80;;;6.40;;
76725;SDS011;65651;53.154;17.916;2023-07-24T03:20:22;9.10;;;6.00;;
76725;SDS011;65651;53.154;17.916;2023-07-24T03:22:53;8.40;;;5.90;;
76725;SDS011;65651;53.154;17.916;2023-07-24T03:25:23;8.50;;;5.40;;
76725;SDS011;65651;53.154;17.916;2023-07-24T03:27:50;9.00;;;6.00;;
76725;SDS011;65651;53.154;17.916;2023-07-24T03:30:18;8.60;;;6.20;;
76725;SDS011;65651;53.154;17.916;2023-07-24T03:32:50;11.50;;;5.90;;
76725;SDS011;65651;53.154;17.916;2023-07-24T03:35:20;9.90;;;6.50;;
76725;SDS011;65651;53.154;17.916;2023-07-24T03:37:48;14.20;;;6.70;;
76725;SDS011;65651;53.154;17.916;2023-07-24T03:40:15;10.50;;;6.40;;
76725;SDS011;65651;53.154;17.916;2023-07-24T03:42:45;10.50;;;6.20;;
76725;SDS011;65651;53.154;17.916;2023-07-24T03:45:13;10.60;;;6.00;;
76725;SDS011;65651;53.154;17.916;2023-07-24T03:47:44;10.50;;;5.90;;
76725;SDS011;65651;53.154;17.916;2023-07-24T03:50:11;15.10;;;5.90;;
76725;SDS011;65651;53.154;17.916;2023-07-24T03:52:42;8.80;;;5.30;;
76725;SDS011;65651;53.154;17.916;2023-07-24T03:55:09;8.90;;;4.70;;
76725;SDS011;65651;53.154;17.916;2023-07-24T03:57:37;8.60;;;4.50;;
76725;SDS011;65651;53.154;17.916;2023-07-24T04:00:07;9.30;;;4.30;;
76725;SDS011;65651;53.154;17.916;2023-07-24T04:02:41;6.90;;;4.10;;
76725;SDS011;65651;53.154;17.916;2023-07-24T04:05:10;5.90;;;4.10;;
76725;SDS011;65651;53.154;17.916;2023-07-24T04:07:38;7.50;;;4.30;;
76725;SDS011;65651;53.154;17.916;2023-07-24T04:10:06;7.30;;;3.90;;
76725;SDS011;65651;53.154;17.916;2023-07-24T04:12:33;7.80;;;4.00;;
76725;SDS011;65651;53.154;17.916;2023-07-24T04:15:01;10.00;;;3.50;;
76725;SDS011;65651;53.154;17.916;2023-07-24T04:17:30;6.60;;;4.00;;
76725;SDS011;65651;53.154;17.916;2023-07-24T04:19:59;8.40;;;4.00;;
76725;SDS011;65651;53.154;17.916;2023-07-24T04:22:27;5.70;;;3.20;;
76725;SDS011;65651;53.154;17.916;2023-07-24T04:24:57;8.90;;;3.10;;
76725;SDS011;65651;53.154;17.916;2023-07-24T04:27:27;6.40;;;3.20;;
76725;SDS011;65651;53.154;17.916;2023-07-24T04:29:57;11.50;;;3.30;;
76725;SDS011;65651;53.154;17.916;2023-07-24T04:32:28;5.10;;;2.80;;
76725;SDS011;65651;53.154;17.916;2023-07-24T04:34:58;5.30;;;3.20;;
76725;SDS011;65651;53.154;17.916;2023-07-24T04:37:29;4.70;;;2.20;;
76725;SDS011;65651;53.154;17.916;2023-07-24T04:39:56;5.00;;;2.60;;
76725;SDS011;65651;53.154;17.916;2023-07-24T04:42:24;5.60;;;2.80;;
76725;SDS011;65651;53.154;17.916;2023-07-24T04:44:52;4.10;;;2.60;;
76725;SDS011;65651;53.154;17.916;2023-07-24T04:47:19;6.50;;;2.90;;
76725;SDS011;65651;53.154;17.916;2023-07-24T04:49:47;7.00;;;3.10;;
76725;SDS011;65651;53.154;17.916;2023-07-24T04:52:16;5.80;;;3.00;;
76725;SDS011;65651;53.154;17.916;2023-07-24T04:54:44;5.10;;;2.30;;
76725;SDS011;65651;53.154;17.916;2023-07-24T04:57:11;5.10;;;2.60;;
76725;SDS011;65651;53.154;17.916;2023-07-24T04:59:39;4.10;;;2.30;;
76725;SDS011;65651;53.154;17.916;2023-07-24T05:02:06;4.50;;;2.40;;
76725;SDS011;65651;53.154;17.916;2023-07-24T05:04:33;3.90;;;2.60;;
76725;SDS011;65651;53.154;17.916;2023-07-24T05:07:01;4.90;;;2.50;;
76725;SDS011;65651;53.154;17.916;2023-07-24T05:09:28;3.60;;;2.50;;
76725;SDS011;65651;53.154;17.916;2023-07-24T05:11:55;5.90;;;3.10;;
76725;SDS011;65651;53.154;17.916;2023-07-24T05:14:23;5.40;;;2.50;;
76725;SDS011;65651;53.154;17.916;2023-07-24T05:16:50;12.10;;;3.10;;
76725;SDS011;65651;53.154;17.916;2023-07-24T05:19:18;7.60;;;2.50;;
76725;SDS011;65651;53.154;17.916;2023-07-24T05:21:45;3.80;;;2.40;;
76725;SDS011;65651;53.154;17.916;2023-07-24T05:24:13;7.00;;;2.60;;
76725;SDS011;65651;53.154;17.916;2023-07-24T05:26:40;6.30;;;2.80;;
76725;SDS011;65651;53.154;17.916;2023-07-24T05:29:08;10.00;;;2.60;;
76725;SDS011;65651;53.154;17.916;2023-07-24T05:31:38;4.50;;;1.80;;
76725;SDS011;65651;53.154;17.916;2023-07-24T05:34:15;5.40;;;2.20;;
76725;SDS011;65651;53.154;17.916;2023-07-24T05:36:42;5.10;;;2.70;;
76725;SDS011;65651;53.154;17.916;2023-07-24T05:39:48;5.40;;;2.60;;
76725;SDS011;65651;53.154;17.916;2023-07-24T05:42:18;3.90;;;2.60;;
76725;SDS011;65651;53.154;17.916;2023-07-24T05:44:50;4.50;;;2.80;;
76725;SDS011;65651;53.154;17.916;2023-07-24T05:47:23;3.80;;;2.20;;
76725;SDS011;65651;53.154;17.916;2023-07-24T05:49:54;9.10;;;3.00;;
76725;SDS011;65651;53.154;17.916;2023-07-24T05:52:22;5.50;;;2.30;;
76725;SDS011;65651;53.154;17.916;2023-07-24T05:54:49;4.70;;;2.00;;
76725;SDS011;65651;53.154;17.916;2023-07-24T05:57:17;5.40;;;2.30;;
76725;SDS011;65651;53.154;17.916;2023-07-24T05:59:44;5.00;;;2.10;;
76725;SDS011;65651;53.154;17.916;2023-07-24T06:02:12;4.80;;;2.10;;
76725;SDS011;65651;53.154;17.916;2023-07-24T06:04:44;7.20;;;2.20;;
76725;SDS011;65651;53.154;17.916;2023-07-24T06:07:17;7.90;;;2.60;;
76725;SDS011;65651;53.154;17.916;2023-07-24T06:09:45;3.60;;;2.50;;
76725;SDS011;65651;53.154;17.916;2023-07-24T06:12:15;6.00;;;2.80;;
76725;SDS011;65651;53.154;17.916;2023-07-24T06:14:43;6.80;;;3.00;;
76725;SDS011;65651;53.154;17.916;2023-07-24T06:17:14;7.90;;;2.90;;
76725;SDS011;65651;53.154;17.916;2023-07-24T06:19:43;4.80;;;2.80;;
76725;SDS011;65651;53.154;17.916;2023-07-24T06:22:10;6.90;;;2.90;;
76725;SDS011;65651;53.154;17.916;2023-07-24T06:24:38;7.20;;;3.40;;
76725;SDS011;65651;53.154;17.916;2023-07-24T06:27:05;5.10;;;2.70;;
76725;SDS011;65651;53.154;17.916;2023-07-24T06:29:36;9.40;;;4.00;;
76725;SDS011;65651;53.154;17.916;2023-07-24T06:32:12;4.80;;;3.00;;
76725;SDS011;65651;53.154;17.916;2023-07-24T06:34:45;4.00;;;2.60;;
76725;SDS011;65651;53.154;17.916;2023-07-24T06:37:14;6.30;;;3.00;;
76725;SDS011;65651;53.154;17.916;2023-07-24T06:39:46;4.40;;;3.10;;
76725;SDS011;65651;53.154;17.916;2023-07-24T06:42:14;4.60;;;2.30;;
76725;SDS011;65651;53.154;17.916;2023-07-24T06:44:41;4.20;;;2.60;;
76725;SDS011;65651;53.154;17.916;2023-07-24T06:47:33;4.50;;;2.70;;
76725;SDS011;65651;53.154;17.916;2023-07-24T06:50:35;4.30;;;3.00;;
76725;SDS011;65651;53.154;17.916;2023-07-24T06:53:03;4.70;;;3.20;;
76725;SDS011;65651;53.154;17.916;2023-07-24T06:55:30;6.10;;;3.50;;
76725;SDS011;65651;53.154;17.916;2023-07-24T06:57:57;5.90;;;3.40;;
76725;SDS011;65651;53.154;17.916;2023-07-24T07:00:25;4.80;;;3.30;;
76725;SDS011;65651;53.154;17.916;2023-07-24T07:02:52;6.60;;;3.70;;
76725;SDS011;65651;53.154;17.916;2023-07-24T07:05:19;7.10;;;3.80;;
76725;SDS011;65651;53.154;17.916;2023-07-24T07:07:48;4.30;;;3.20;;
76725;SDS011;65651;53.154;17.916;2023-07-24T07:10:18;4.90;;;3.60;;
76725;SDS011;65651;53.154;17.916;2023-07-24T07:12:45;5.10;;;3.40;;
76725;SDS011;65651;53.154;17.916;2023-07-24T07:15:19;4.70;;;2.90;;
76725;SDS011;65651;53.154;17.916;2023-07-24T07:17:47;4.80;;;3.10;;
76725;SDS011;65651;53.154;17.916;2023-07-24T07:20:14;3.80;;;2.70;;
76725;SDS011;65651;53.154;17.916;2023-07-24T07:22:42;4.70;;;3.10;;
76725;SDS011;65651;53.154;17.916;2023-07-24T07:25:09;4.20;;;3.10;;
76725;SDS011;65651;53.154;17.916;2023-07-24T07:27:36;4.90;;;3.20;;
76725;SDS011;65651;53.154;17.916;2023-07-24T07:30:04;4.00;;;3.00;;
76725;SDS011;65651;53.154;17.916;2023-07-24T07:32:32;4.60;;;3.10;;
76725;SDS011;65651;53.154;17.916;2023-07-24T07:35:06;4.30;;;3.30;;
76725;SDS011;65651;53.154;17.916;2023-07-24T07:37:34;5.00;;;3.50;;
76725;SDS011;65651;53.154;17.916;2023-07-24T07:40:04;4.20;;;3.40;;
76725;SDS011;65651;53.154;17.916;2023-07-24T07:42:32;5.70;;;3.70;;
76725;SDS011;65651;53.154;17.916;2023-07-24T07:45:03;5.70;;;3.30;;
76725;SDS011;65651;53.154;17.916;2023-07-24T07:47:31;4.90;;;3.00;;
76725;SDS011;65651;53.154;17.916;2023-07-24T07:49:58;4.00;;;2.90;;
76725;SDS011;65651;53.154;17.916;2023-07-24T07:52:26;4.40;;;3.20;;
76725;SDS011;65651;53.154;17.916;2023-07-24T07:54:57;2.70;;;2.10;;
76725;SDS011;65651;53.154;17.916;2023-07-24T07:57:24;4.10;;;2.60;;
76725;SDS011;65651;53.154;17.916;2023-07-24T07:59:51;3.80;;;3.20;;
76725;SDS011;65651;53.154;17.916;2023-07-24T08:02:22;4.20;;;2.70;;
76725;SDS011;65651;53.154;17.916;2023-07-24T08:04:49;3.80;;;3.00;;
76725;SDS011;65651;53.154;17.916;2023-07-24T08:07:16;5.30;;;2.90;;
76725;SDS011;65651;53.154;17.916;2023-07-24T08:09:45;4.90;;;3.70;;
76725;SDS011;65651;53.154;17.916;2023-07-24T08:12:16;4.30;;;3.30;;
76725;SDS011;65651;53.154;17.916;2023-07-24T08:14:47;3.60;;;2.30;;
76725;SDS011;65651;53.154;17.916;2023-07-24T08:17:14;4.60;;;3.00;;
76725;SDS011;65651;53.154;17.916;2023-07-24T08:19:41;3.20;;;2.60;;
76725;SDS011;65651;53.154;17.916;2023-07-24T08:22:09;3.80;;;2.00;;
76725;SDS011;65651;53.154;17.916;2023-07-24T08:24:40;3.10;;;2.40;;
76725;SDS011;65651;53.154;17.916;2023-07-24T08:27:07;4.50;;;2.70;;
76725;SDS011;65651;53.154;17.916;2023-07-24T08:29:34;3.40;;;2.70;;
76725;SDS011;65651;53.154;17.916;2023-07-24T08:32:04;3.10;;;2.50;;
76725;SDS011;65651;53.154;17.916;2023-07-24T08:34:35;2.90;;;2.10;;
76725;SDS011;65651;53.154;17.916;2023-07-24T08:37:03;2.90;;;2.20;;
76725;SDS011;65651;53.154;17.916;2023-07-24T08:39:30;2.70;;;2.30;;
76725;SDS011;65651;53.154;17.916;2023-07-24T08:41:58;3.30;;;2.20;;
76725;SDS011;65651;53.154;17.916;2023-07-24T08:44:26;3.40;;;2.50;;
76725;SDS011;65651;53.154;17.916;2023-07-24T08:46:56;4.00;;;1.90;;
76725;SDS011;65651;53.154;17.916;2023-07-24T08:49:25;3.10;;;2.80;;
76725;SDS011;65651;53.154;17.916;2023-07-24T08:51:56;3.60;;;1.90;;
76725;SDS011;65651;53.154;17.916;2023-07-24T08:54:26;4.90;;;2.10;;
76725;SDS011;65651;53.154;17.916;2023-07-24T08:56:54;3.50;;;2.20;;
76725;SDS011;65651;53.154;17.916;2023-07-24T08:59:22;3.10;;;1.50;;
76725;SDS011;65651;53.154;17.916;2023-07-24T09:01:53;3.50;;;2.00;;
76725;SDS011;65651;53.154;17.916;2023-07-24T09:04:21;5.90;;;2.70;;
76725;SDS011;65651;53.154;17.916;2023-07-24T09:06:48;3.50;;;1.90;;
76725;SDS011;65651;53.154;17.916;2023-07-24T09:09:17;4.90;;;2.20;;
76725;SDS011;65651;53.154;17.916;2023-07-24T09:11:51;4.00;;;1.70;;
76725;SDS011;65651;53.154;17.916;2023-07-24T09:14:21;2.50;;;1.70;;
76725;SDS011;65651;53.154;17.916;2023-07-24T09:17:01;1.80;;;1.60;;
76725;SDS011;65651;53.154;17.916;2023-07-24T09:19:34;3.20;;;2.00;;
76725;SDS011;65651;53.154;17.916;2023-07-24T09:22:08;2.00;;;1.80;;
76725;SDS011;65651;53.154;17.916;2023-07-24T09:24:37;2.90;;;1.80;;
76725;SDS011;65651;53.154;17.916;2023-07-24T09:27:15;2.30;;;1.50;;
76725;SDS011;65651;53.154;17.916;2023-07-24T09:29:42;3.80;;;1.70;;
76725;SDS011;65651;53.154;17.916;2023-07-24T09:32:23;2.40;;;1.80;;
76725;SDS011;65651;53.154;17.916;2023-07-24T09:34:53;4.40;;;2.30;;
76725;SDS011;65651;53.154;17.916;2023-07-24T09:39:54;4.00;;;2.10;;
76725;SDS011;65651;53.154;17.916;2023-07-24T09:42:31;3.80;;;2.00;;
76725;SDS011;65651;53.154;17.916;2023-07-24T09:45:00;3.50;;;2.00;;
76725;SDS011;65651;53.154;17.916;2023-07-24T09:47:28;2.90;;;2.20;;
76725;SDS011;65651;53.154;17.916;2023-07-24T09:49:57;2.90;;;2.10;;
76725;SDS011;65651;53.154;17.916;2023-07-24T09:52:29;3.30;;;1.80;;
76725;SDS011;65651;53.154;17.916;2023-07-24T09:57:46;3.10;;;2.10;;
76725;SDS011;65651;53.154;17.916;2023-07-24T10:00:21;3.60;;;2.20;;
76725;SDS011;65651;53.154;17.916;2023-07-24T10:02:50;3.70;;;2.00;;
76725;SDS011;65651;53.154;17.916;2023-07-24T10:05:18;4.40;;;2.40;;
76725;SDS011;65651;53.154;17.916;2023-07-24T10:07:46;2.30;;;1.80;;
76725;SDS011;65651;53.154;17.916;2023-07-24T10:10:14;3.30;;;2.00;;
76725;SDS011;65651;53.154;17.916;2023-07-24T10:12:44;2.50;;;2.20;;
76725;SDS011;65651;53.154;17.916;2023-07-24T10:15:11;2.40;;;2.20;;
76725;SDS011;65651;53.154;17.916;2023-07-24T10:17:43;4.80;;;1.70;;
76725;SDS011;65651;53.154;17.916;2023-07-24T10:20:11;4.00;;;2.00;;
76725;SDS011;65651;53.154;17.916;2023-07-24T10:22:44;3.40;;;2.20;;
76725;SDS011;65651;53.154;17.916;2023-07-24T10:25:14;2.70;;;2.40;;
76725;SDS011;65651;53.154;17.916;2023-07-24T10:27:42;3.10;;;2.20;;
76725;SDS011;65651;53.154;17.916;2023-07-24T10:30:14;3.70;;;2.50;;
76725;SDS011;65651;53.154;17.916;2023-07-24T10:32:46;3.70;;;2.10;;
76725;SDS011;65651;53.154;17.916;2023-07-24T10:35:14;3.70;;;2.10;;
76725;SDS011;65651;53.154;17.916;2023-07-24T10:37:58;2.80;;;2.20;;
76725;SDS011;65651;53.154;17.916;2023-07-24T10:40:27;4.50;;;2.00;;
76725;SDS011;65651;53.154;17.916;2023-07-24T10:42:59;5.10;;;2.10;;
76725;SDS011;65651;53.154;17.916;2023-07-24T10:45:41;4.00;;;1.40;;
76725;SDS011;65651;53.154;17.916;2023-07-24T10:48:19;4.10;;;1.60;;
76725;SDS011;65651;53.154;17.916;2023-07-24T10:50:51;2.70;;;1.50;;
76725;SDS011;65651;53.154;17.916;2023-07-24T10:53:19;4.40;;;1.70;;
76725;SDS011;65651;53.154;17.916;2023-07-24T10:55:53;2.90;;;1.70;;
76725;SDS011;65651;53.154;17.916;2023-07-24T10:58:24;2.90;;;1.50;;
76725;SDS011;65651;53.154;17.916;2023-07-24T11:00:56;3.70;;;1.90;;
76725;SDS011;65651;53.154;17.916;2023-07-24T11:03:25;4.90;;;1.50;;
76725;SDS011;65651;53.154;17.916;2023-07-24T11:05:53;4.10;;;1.80;;
76725;SDS011;65651;53.154;17.916;2023-07-24T11:08:21;3.50;;;1.90;;
76725;SDS011;65651;53.154;17.916;2023-07-24T11:10:49;3.70;;;1.80;;
76725;SDS011;65651;53.154;17.916;2023-07-24T11:13:23;3.60;;;2.10;;
76725;SDS011;65651;53.154;17.916;2023-07-24T11:15:55;4.00;;;1.60;;
76725;SDS011;65651;53.154;17.916;2023-07-24T11:18:23;6.80;;;2.20;;
76725;SDS011;65651;53.154;17.916;2023-07-24T11:20:54;8.20;;;2.50;;
76725;SDS011;65651;53.154;17.916;2023-07-24T11:23:24;2.50;;;1.80;;
76725;SDS011;65651;53.154;17.916;2023-07-24T11:25:53;2.20;;;1.70;;
76725;SDS011;65651;53.154;17.916;2023-07-24T11:28:21;6.10;;;1.90;;
76725;SDS011;65651;53.154;17.916;2023-07-24T11:30:48;2.70;;;1.80;;
76725;SDS011;65651;53.154;17.916;2023-07-24T11:33:18;11.50;;;2.10;;
76725;SDS011;65651;53.154;17.916;2023-07-24T11:35:46;3.40;;;1.90;;
76725;SDS011;65651;53.154;17.916;2023-07-24T11:38:15;2.10;;;1.90;;
76725;SDS011;65651;53.154;17.916;2023-07-24T11:40:46;2.70;;;1.60;;
76725;SDS011;65651;53.154;17.916;2023-07-24T11:43:16;13.00;;;2.40;;
76725;SDS011;65651;53.154;17.916;2023-07-24T11:45:45;19.50;;;3.40;;
76725;SDS011;65651;53.154;17.916;2023-07-24T11:48:22;5.30;;;2.40;;
76725;SDS011;65651;53.154;17.916;2023-07-24T11:50:52;7.80;;;2.90;;
76725;SDS011;65651;53.154;17.916;2023-07-24T11:55:57;6.60;;;2.30;;
76725;SDS011;65651;53.154;17.916;2023-07-24T11:58:36;6.00;;;2.20;;
76725;SDS011;65651;53.154;17.916;2023-07-24T12:01:04;2.90;;;2.00;;
76725;SDS011;65651;53.154;17.916;2023-07-24T12:03:34;5.70;;;2.30;;
76725;SDS011;65651;53.154;17.916;2023-07-24T12:06:05;6.90;;;2.00;;
76725;SDS011;65651;53.154;17.916;2023-07-24T12:08:42;28.00;;;3.40;;
76725;SDS011;65651;53.154;17.916;2023-07-24T12:11:16;4.40;;;2.00;;
76725;SDS011;65651;53.154;17.916;2023-07-24T12:13:48;2.90;;;1.10;;
76725;SDS011;65651;53.154;17.916;2023-07-24T12:16:15;5.20;;;1.20;;
76725;SDS011;65651;53.154;17.916;2023-07-24T12:18:42;7.80;;;1.50;;
76725;SDS011;65651;53.154;17.916;2023-07-24T12:21:11;5.10;;;1.70;;
76725;SDS011;65651;53.154;17.916;2023-07-24T12:23:41;2.00;;;1.30;;
76725;SDS011;65651;53.154;17.916;2023-07-24T12:26:12;4.20;;;1.30;;
76725;SDS011;65651;53.154;17.916;2023-07-24T12:28:39;1.70;;;1.00;;
76725;SDS011;65651;53.154;17.916;2023-07-24T12:31:06;2.20;;;1.10;;
76725;SDS011;65651;53.154;17.916;2023-07-24T12:33:36;2.70;;;1.30;;
76725;SDS011;65651;53.154;17.916;2023-07-24T12:36:03;2.00;;;1.40;;
76725;SDS011;65651;53.154;17.916;2023-07-24T12:38:32;2.70;;;1.50;;
76725;SDS011;65651;53.154;17.916;2023-07-24T12:40:59;1.80;;;1.10;;
76725;SDS011;65651;53.154;17.916;2023-07-24T12:43:27;2.70;;;1.40;;
76725;SDS011;65651;53.154;17.916;2023-07-24T12:45:58;3.50;;;1.50;;
76725;SDS011;65651;53.154;17.916;2023-07-24T12:48:25;3.60;;;1.10;;
76725;SDS011;65651;53.154;17.916;2023-07-24T12:50:52;9.60;;;1.70;;
76725;SDS011;65651;53.154;17.916;2023-07-24T12:53:24;8.00;;;1.80;;
76725;SDS011;65651;53.154;17.916;2023-07-24T12:55:52;4.50;;;1.90;;
76725;SDS011;65651;53.154;17.916;2023-07-24T12:58:22;2.60;;;1.50;;
76725;SDS011;65651;53.154;17.916;2023-07-24T13:00:52;2.40;;;1.40;;
76725;SDS011;65651;53.154;17.916;2023-07-24T13:03:20;2.50;;;1.60;;
76725;SDS011;65651;53.154;17.916;2023-07-24T13:05:48;2.70;;;1.70;;
76725;SDS011;65651;53.154;17.916;2023-07-24T13:08:15;7.70;;;1.60;;
76725;SDS011;65651;53.154;17.916;2023-07-24T13:10:43;12.40;;;1.70;;
76725;SDS011;65651;53.154;17.916;2023-07-24T13:13:14;6.50;;;1.40;;
76725;SDS011;65651;53.154;17.916;2023-07-24T13:15:42;3.60;;;1.70;;
76725;SDS011;65651;53.154;17.916;2023-07-24T13:18:10;3.40;;;1.70;;
76725;SDS011;65651;53.154;17.916;2023-07-24T13:20:40;4.30;;;2.00;;
76725;SDS011;65651;53.154;17.916;2023-07-24T13:23:07;2.70;;;1.70;;
76725;SDS011;65651;53.154;17.916;2023-07-24T13:25:35;3.10;;;1.70;;
76725;SDS011;65651;53.154;17.916;2023-07-24T13:28:02;5.90;;;2.00;;
76725;SDS011;65651;53.154;17.916;2023-07-24T13:30:30;2.40;;;1.70;;
76725;SDS011;65651;53.154;17.916;2023-07-24T13:32:57;2.90;;;1.90;;
76725;SDS011;65651;53.154;17.916;2023-07-24T13:35:24;3.10;;;2.20;;
76725;SDS011;65651;53.154;17.916;2023-07-24T13:37:52;3.00;;;1.80;;
76725;SDS011;65651;53.154;17.916;2023-07-24T13:40:19;6.00;;;1.70;;
76725;SDS011;65651;53.154;17.916;2023-07-24T13:42:46;2.60;;;2.10;;
76725;SDS011;65651;53.154;17.916;2023-07-24T13:45:13;2.80;;;1.90;;
76725;SDS011;65651;53.154;17.916;2023-07-24T13:47:41;4.70;;;1.90;;
76725;SDS011;65651;53.154;17.916;2023-07-24T13:50:09;4.90;;;2.20;;
76725;SDS011;65651;53.154;17.916;2023-07-24T13:52:37;4.40;;;2.10;;
76725;SDS011;65651;53.154;17.916;2023-07-24T13:55:04;3.10;;;2.30;;
76725;SDS011;65651;53.154;17.916;2023-07-24T13:57:32;3.20;;;2.00;;
76725;SDS011;65651;53.154;17.916;2023-07-24T14:00:00;3.80;;;1.90;;
76725;SDS011;65651;53.154;17.916;2023-07-24T14:02:28;1.90;;;1.40;;
76725;SDS011;65651;53.154;17.916;2023-07-24T14:04:57;3.60;;;1.80;;
76725;SDS011;65651;53.154;17.916;2023-07-24T14:07:26;3.10;;;2.60;;
76725;SDS011;65651;53.154;17.916;2023-07-24T14:09:53;3.30;;;2.50;;
76725;SDS011;65651;53.154;17.916;2023-07-24T14:12:20;2.50;;;2.00;;
76725;SDS011;65651;53.154;17.916;2023-07-24T14:14:47;4.20;;;1.90;;
76725;SDS011;65651;53.154;17.916;2023-07-24T14:17:18;5.30;;;2.20;;
76725;SDS011;65651;53.154;17.916;2023-07-24T14:19:46;3.80;;;2.10;;
76725;SDS011;65651;53.154;17.916;2023-07-24T14:22:14;4.40;;;2.30;;
76725;SDS011;65651;53.154;17.916;2023-07-24T14:24:41;3.90;;;2.30;;
76725;SDS011;65651;53.154;17.916;2023-07-24T14:27:08;6.10;;;2.00;;
76725;SDS011;65651;53.154;17.916;2023-07-24T14:29:35;4.20;;;2.20;;
76725;SDS011;65651;53.154;17.916;2023-07-24T14:32:07;4.60;;;2.20;;
76725;SDS011;65651;53.154;17.916;2023-07-24T14:34:35;3.50;;;2.40;;
76725;SDS011;65651;53.154;17.916;2023-07-24T14:37:03;4.00;;;1.90;;
76725;SDS011;65651;53.154;17.916;2023-07-24T14:39:31;3.70;;;2.50;;
76725;SDS011;65651;53.154;17.916;2023-07-24T14:41:59;4.40;;;2.00;;
76725;SDS011;65651;53.154;17.916;2023-07-24T14:44:26;4.90;;;2.90;;
76725;SDS011;65651;53.154;17.916;2023-07-24T14:46:57;3.00;;;2.40;;
76725;SDS011;65651;53.154;17.916;2023-07-24T14:49:24;5.30;;;2.50;;
76725;SDS011;65651;53.154;17.916;2023-07-24T14:51:51;3.10;;;2.40;;
76725;SDS011;65651;53.154;17.916;2023-07-24T14:54:18;5.10;;;2.80;;
76725;SDS011;65651;53.154;17.916;2023-07-24T14:56:45;3.30;;;2.50;;